createdAt,value
2019-03-24T00:01:45.145Z,10.03
2019-03-24T00:04:17.643Z,7.37
2019-03-24T00:06:44.436Z,7.43
2019-03-24T00:09:11.484Z,6.60
2019-03-24T00:11:38.517Z,8.97
2019-03-24T00:14:05.667Z,7.30
2019-03-24T00:16:32.706Z,7.30
2019-03-24T00:18:59.767Z,8.70
2019-03-24T00:21:27.011Z,6.67
2019-03-24T00:23:54.087Z,9.27
2019-03-24T00:26:23.402Z,7.43
2019-03-24T00:28:49.903Z,6.80
2019-03-24T00:31:17.049Z,8.70
2019-03-24T00:33:44.121Z,8.57
2019-03-24T00:36:11.167Z,7.53
2019-03-24T00:38:38.254Z,10.10
2019-03-24T00:41:05.327Z,10.00
2019-03-24T00:43:32.491Z,7.60
2019-03-24T00:45:59.538Z,8.00
2019-03-24T00:48:26.623Z,8.80
2019-03-24T00:50:53.667Z,7.63
2019-03-24T00:53:20.713Z,6.87
2019-03-24T00:55:47.938Z,9.63
2019-03-24T00:58:14.993Z,7.27
2019-03-24T01:00:42.056Z,11.63
2019-03-24T01:03:09.096Z,10.07
2019-03-24T01:05:36.334Z,8.80
2019-03-24T01:08:03.416Z,10.60
2019-03-24T01:10:30.484Z,8.03
2019-03-24T01:12:57.680Z,8.90
2019-03-24T01:15:24.751Z,9.87
2019-03-24T01:18:02.148Z,8.33
2019-03-24T01:20:34.265Z,10.17
2019-03-24T01:23:12.204Z,11.23
2019-03-24T01:25:50.770Z,11.43
2019-03-24T01:28:29.510Z,8.20
2019-03-24T01:31:03.617Z,10.53
2019-03-24T01:33:33.377Z,8.70
2019-03-24T01:36:12.694Z,12.13
2019-03-24T01:38:50.502Z,9.93
2019-03-24T01:41:27.143Z,9.93
2019-03-24T01:43:54.210Z,11.17
2019-03-24T01:46:29.825Z,12.30
2019-03-24T01:49:00.771Z,10.60
2019-03-24T01:51:28.045Z,11.30
2019-03-24T01:53:55.094Z,12.33
2019-03-24T01:56:22.167Z,10.43
2019-03-24T01:58:49.246Z,9.77
2019-03-24T02:01:16.443Z,12.13
2019-03-24T02:03:43.490Z,11.30
2019-03-24T02:06:10.560Z,12.30
2019-03-24T02:08:37.607Z,10.20
2019-03-24T02:11:04.691Z,11.00
2019-03-24T02:13:31.739Z,12.43
2019-03-24T02:16:08.815Z,11.30
2019-03-24T02:18:27.630Z,12.67
2019-03-24T02:20:54.674Z,10.83
2019-03-24T02:23:21.931Z,12.87
2019-03-24T02:25:48.970Z,12.07
2019-03-24T02:28:17.452Z,12.00
2019-03-24T02:30:44.662Z,13.33
2019-03-24T02:33:11.742Z,13.47
2019-03-24T02:35:38.789Z,11.40
2019-03-24T02:38:05.901Z,11.23
2019-03-24T02:40:32.980Z,12.30
2019-03-24T02:43:00.133Z,11.90
2019-03-24T02:45:27.224Z,11.43
2019-03-24T02:47:54.263Z,14.20
2019-03-24T02:50:21.332Z,13.97
2019-03-24T02:52:48.536Z,12.43
2019-03-24T02:55:15.615Z,10.90
2019-03-24T02:57:42.722Z,11.17
2019-03-24T03:00:09.772Z,12.77
2019-03-24T03:02:36.945Z,10.33
2019-03-24T03:05:03.987Z,13.70
2019-03-24T03:07:31.082Z,12.33
2019-03-24T03:09:58.207Z,13.93
2019-03-24T03:12:25.256Z,13.07
2019-03-24T03:14:52.374Z,15.53
2019-03-24T03:17:19.656Z,13.97
2019-03-24T03:19:46.741Z,13.07
2019-03-24T03:22:13.794Z,12.40
2019-03-24T03:24:40.846Z,14.50
2019-03-24T03:27:08.034Z,13.30
2019-03-24T03:29:35.157Z,15.00
2019-03-24T03:32:02.205Z,13.10
2019-03-24T03:34:29.370Z,16.33
2019-03-24T03:36:56.421Z,16.90
2019-03-24T03:39:23.485Z,15.83
2019-03-24T03:41:50.732Z,13.23
2019-03-24T03:44:17.866Z,12.60
2019-03-24T03:46:52.637Z,14.40
2019-03-24T03:49:13.707Z,13.47
2019-03-24T03:51:40.962Z,17.63
2019-03-24T03:54:08.002Z,14.50
2019-03-24T03:56:35.074Z,14.90
2019-03-24T03:59:02.174Z,14.90
2019-03-24T04:01:29.224Z,14.50
2019-03-24T04:03:56.277Z,15.17
2019-03-24T04:06:23.446Z,13.03
2019-03-24T04:08:50.524Z,14.83
2019-03-24T04:11:17.577Z,14.20
2019-03-24T04:13:44.618Z,15.17
2019-03-24T04:16:11.844Z,16.57
2019-03-24T04:18:38.898Z,15.00
2019-03-24T04:21:05.975Z,15.90
2019-03-24T04:23:33.186Z,14.23
2019-03-24T04:26:00.241Z,20.50
2019-03-24T04:28:27.287Z,18.90
2019-03-24T04:30:54.353Z,14.30
2019-03-24T04:33:21.426Z,15.47
2019-03-24T04:35:48.475Z,18.07
2019-03-24T04:38:15.515Z,13.50
2019-03-24T04:40:42.588Z,16.53
2019-03-24T04:43:09.636Z,16.07
2019-03-24T04:45:36.713Z,12.33
2019-03-24T04:48:03.765Z,16.90
2019-03-24T04:50:30.828Z,16.57
2019-03-24T04:52:57.875Z,17.33
2019-03-24T04:55:25.024Z,13.30
2019-03-24T04:57:52.071Z,15.20
2019-03-24T05:00:19.155Z,15.60
2019-03-24T05:02:46.204Z,16.20
2019-03-24T05:05:13.407Z,17.63
2019-03-24T05:07:40.484Z,13.23
2019-03-24T05:10:07.541Z,14.40
2019-03-24T05:12:34.583Z,13.77
2019-03-24T05:15:01.810Z,17.03
2019-03-24T05:17:28.854Z,15.30
2019-03-24T05:19:55.947Z,14.97
2019-03-24T05:22:22.999Z,17.47
2019-03-24T05:24:50.046Z,17.70
2019-03-24T05:27:17.256Z,12.03
2019-03-24T05:29:44.293Z,17.77
2019-03-24T05:32:12.067Z,18.53
2019-03-24T05:34:39.160Z,15.97
2019-03-24T05:37:06.228Z,22.43
2019-03-24T05:39:41.981Z,18.70
2019-03-24T05:42:19.711Z,14.77
2019-03-24T05:44:45.132Z,18.70
2019-03-24T05:47:12.665Z,17.40
2019-03-24T05:49:39.704Z,16.00
2019-03-24T05:52:06.985Z,18.10
2019-03-24T05:54:34.040Z,18.43
2019-03-24T05:57:01.162Z,16.93
2019-03-24T05:59:28.242Z,19.43
2019-03-24T06:02:00.768Z,21.90
2019-03-24T06:04:28.719Z,16.70
2019-03-24T06:06:56.354Z,19.30
2019-03-24T06:09:24.098Z,16.50
2019-03-24T06:11:51.252Z,17.17
2019-03-24T06:14:18.399Z,15.70
2019-03-24T06:16:45.472Z,18.13
2019-03-24T06:19:12.545Z,14.70
2019-03-24T06:21:39.674Z,21.00
2019-03-24T06:24:06.753Z,22.13
2019-03-24T06:26:33.824Z,20.37
2019-03-24T06:29:00.871Z,24.00
2019-03-24T06:31:28.145Z,29.00
2019-03-24T06:33:55.189Z,24.37
2019-03-24T06:36:22.260Z,23.97
2019-03-24T06:38:49.320Z,21.43
2019-03-24T06:41:16.555Z,19.80
2019-03-24T06:43:43.610Z,24.23
2019-03-24T06:46:10.663Z,32.00
2019-03-24T06:48:37.722Z,23.97
2019-03-24T06:51:04.797Z,23.40
2019-03-24T06:53:31.888Z,27.93
2019-03-24T06:55:58.955Z,25.00
2019-03-24T06:58:26.033Z,28.20
2019-03-24T07:00:53.133Z,23.10
2019-03-24T07:03:20.372Z,20.30
2019-03-24T07:05:47.448Z,28.17
2019-03-24T07:08:14.525Z,21.60
2019-03-24T07:10:41.602Z,26.60
2019-03-24T07:13:08.655Z,26.87
2019-03-24T07:15:35.827Z,22.80
2019-03-24T07:18:08.296Z,26.30
2019-03-24T07:20:31.650Z,24.20
2019-03-24T07:22:58.708Z,25.23
2019-03-24T07:25:28.110Z,22.77
2019-03-24T07:27:58.115Z,26.80
2019-03-24T07:30:25.178Z,22.07
2019-03-24T07:32:52.316Z,26.00
2019-03-24T07:35:19.398Z,28.50
2019-03-24T07:37:46.489Z,26.73
2019-03-24T07:40:13.549Z,24.77
2019-03-24T07:42:40.588Z,22.47
2019-03-24T07:45:07.770Z,32.13
2019-03-24T07:47:34.856Z,27.70
2019-03-24T07:50:01.895Z,25.53
2019-03-24T07:52:29.110Z,27.37
2019-03-24T07:54:56.167Z,24.10
2019-03-24T07:57:23.224Z,21.00
2019-03-24T07:59:50.293Z,24.47
2019-03-24T08:02:17.684Z,33.60
2019-03-24T08:04:44.815Z,29.43
2019-03-24T08:07:11.901Z,24.00
2019-03-24T08:09:38.962Z,30.67
2019-03-24T08:12:06.113Z,25.57
2019-03-24T08:14:33.174Z,25.30
2019-03-24T08:17:00.240Z,29.93
2019-03-24T08:19:27.315Z,27.50
2019-03-24T08:21:54.494Z,23.70
2019-03-24T08:24:21.572Z,18.57
2019-03-24T08:26:48.642Z,25.87
2019-03-24T08:29:15.704Z,25.27
2019-03-24T08:31:42.789Z,21.27
2019-03-24T08:34:09.841Z,19.90
2019-03-24T08:36:36.910Z,24.40
2019-03-24T08:39:03.970Z,25.13
2019-03-24T08:41:31.150Z,22.80
2019-03-24T08:43:58.220Z,27.63
2019-03-24T08:46:25.324Z,31.53
2019-03-24T08:48:52.638Z,35.07
2019-03-24T08:51:19.711Z,28.53
2019-03-24T08:53:46.805Z,25.63
2019-03-24T08:56:14.015Z,29.13
2019-03-24T08:58:41.191Z,22.20
2019-03-24T09:01:19.759Z,28.90
2019-03-24T09:03:45.349Z,19.43
2019-03-24T09:06:12.495Z,23.87
2019-03-24T09:08:39.586Z,20.23
2019-03-24T09:11:07.106Z,24.53
2019-03-24T09:13:36.752Z,22.10
2019-03-24T09:16:03.156Z,22.27
2019-03-24T09:18:30.221Z,22.13
2019-03-24T09:20:59.711Z,21.50
2019-03-24T09:23:26.928Z,26.40
2019-03-24T09:25:54.033Z,25.37
2019-03-24T09:28:21.111Z,20.60
2019-03-24T09:30:48.195Z,19.70
2019-03-24T09:33:15.466Z,20.73
2019-03-24T09:35:42.556Z,21.13
2019-03-24T09:38:09.623Z,17.67
2019-03-24T09:40:36.714Z,17.23
2019-03-24T09:43:03.849Z,17.17
2019-03-24T09:45:30.921Z,17.37
2019-03-24T09:47:58.206Z,19.00
2019-03-24T09:50:25.307Z,17.10
2019-03-24T09:52:52.475Z,15.73
2019-03-24T09:55:19.559Z,17.20
2019-03-24T09:57:48.851Z,19.87
2019-03-24T10:00:15.445Z,18.50
2019-03-24T10:02:44.395Z,15.03
2019-03-24T10:05:11.472Z,23.70
2019-03-24T10:07:38.646Z,16.37
2019-03-24T10:10:05.729Z,17.40
2019-03-24T10:12:32.862Z,18.57
2019-03-24T10:15:00.010Z,17.23
2019-03-24T10:17:27.056Z,13.80
2019-03-24T10:19:54.168Z,16.10
2019-03-24T10:22:21.218Z,14.70
2019-03-24T10:24:48.395Z,20.30
2019-03-24T10:27:15.550Z,17.63
2019-03-24T10:29:42.633Z,13.80
2019-03-24T10:32:09.777Z,16.17
2019-03-24T10:34:36.865Z,17.10
2019-03-24T10:37:04.085Z,14.30
2019-03-24T10:39:32.074Z,14.30
2019-03-24T10:41:59.368Z,11.17
2019-03-24T10:44:26.407Z,13.10
2019-03-24T10:46:53.482Z,14.13
2019-03-24T10:49:24.827Z,11.93
2019-03-24T10:51:49.470Z,13.70
2019-03-24T10:54:16.562Z,11.00
2019-03-24T10:56:43.667Z,18.87
2019-03-24T10:59:10.710Z,12.27
2019-03-24T11:01:37.780Z,12.07
2019-03-24T11:04:05.088Z,13.10
2019-03-24T11:06:32.135Z,10.90
2019-03-24T11:08:59.234Z,11.80
2019-03-24T11:11:26.274Z,31.27
2019-03-24T11:13:53.444Z,10.87
2019-03-24T11:16:20.494Z,15.87
2019-03-24T11:18:47.580Z,12.70
2019-03-24T11:21:14.631Z,13.07
2019-03-24T11:23:41.844Z,14.27
2019-03-24T11:26:08.927Z,11.80
2019-03-24T11:28:35.976Z,15.27
2019-03-24T11:31:03.051Z,13.73
2019-03-24T11:33:30.093Z,15.23
2019-03-24T11:35:57.172Z,10.47
2019-03-24T11:38:24.213Z,16.03
2019-03-24T11:40:51.291Z,13.10
2019-03-24T11:43:18.369Z,10.70
2019-03-24T11:45:45.425Z,14.73
2019-03-24T11:48:12.495Z,10.47
2019-03-24T11:50:39.544Z,11.70
2019-03-24T11:53:06.600Z,11.53
2019-03-24T11:55:33.870Z,13.80
2019-03-24T11:58:05.680Z,10.83
2019-03-24T12:00:29.678Z,12.30
2019-03-24T12:02:56.739Z,14.80
2019-03-24T12:05:23.925Z,12.60
2019-03-24T12:07:50.963Z,16.57
2019-03-24T12:10:18.047Z,16.80
2019-03-24T12:12:45.260Z,11.67
2019-03-24T12:15:12.304Z,11.10
2019-03-24T12:17:39.372Z,12.80
2019-03-24T12:20:06.429Z,13.90
2019-03-24T12:22:33.508Z,12.10
2019-03-24T12:25:00.692Z,9.53
2019-03-24T12:27:27.747Z,10.50
2019-03-24T12:29:54.818Z,11.97
2019-03-24T12:32:22.458Z,12.93
2019-03-24T12:34:49.521Z,14.60
2019-03-24T12:37:16.624Z,15.87
2019-03-24T12:39:43.762Z,18.47
2019-03-24T12:42:11.104Z,12.80
2019-03-24T12:44:38.232Z,11.13
2019-03-24T12:47:05.327Z,42.87
2019-03-24T12:49:32.477Z,10.50
2019-03-24T12:51:59.526Z,11.83
2019-03-24T12:54:26.729Z,11.53
2019-03-24T12:56:53.831Z,10.17
2019-03-24T12:59:20.930Z,10.40
2019-03-24T13:01:48.026Z,13.60
2019-03-24T13:04:15.283Z,11.47
2019-03-24T13:06:42.332Z,12.53
2019-03-24T13:09:21.889Z,13.77
2019-03-24T13:11:57.748Z,13.47
2019-03-24T13:14:30.928Z,10.03
2019-03-24T13:17:03.516Z,11.67
2019-03-24T13:19:36.385Z,10.83
2019-03-24T13:22:09.623Z,9.70
2019-03-24T13:24:49.102Z,12.67
2019-03-24T13:27:14.119Z,11.73
2019-03-24T13:29:41.235Z,10.40
2019-03-24T13:32:08.530Z,14.47
2019-03-24T13:34:35.628Z,10.37
2019-03-24T13:37:04.275Z,14.17
2019-03-24T13:39:31.466Z,12.13
2019-03-24T13:41:58.770Z,13.53
2019-03-24T13:44:25.933Z,10.83
2019-03-24T13:46:53.107Z,12.37
2019-03-24T13:49:20.226Z,14.23
2019-03-24T13:51:47.412Z,13.60
2019-03-24T13:54:14.703Z,11.07
2019-03-24T13:56:41.827Z,9.23
2019-03-24T13:59:08.898Z,13.87
2019-03-24T14:01:36.259Z,16.33
2019-03-24T14:04:03.342Z,13.20
2019-03-24T14:06:30.472Z,14.63
2019-03-24T14:08:57.651Z,12.10
2019-03-24T14:11:24.700Z,10.60
2019-03-24T14:13:51.818Z,11.80
2019-03-24T14:16:18.859Z,10.73
2019-03-24T14:18:45.943Z,12.47
2019-03-24T14:21:12.983Z,12.07
2019-03-24T14:23:40.207Z,10.83
2019-03-24T14:26:07.245Z,10.27
2019-03-24T14:28:34.295Z,12.87
2019-03-24T14:31:01.443Z,11.33
2019-03-24T14:33:29.388Z,12.50
2019-03-24T14:35:56.460Z,11.00
2019-03-24T14:38:23.506Z,10.93
2019-03-24T14:40:50.620Z,16.53
2019-03-24T14:43:17.688Z,12.93
2019-03-24T14:45:44.768Z,16.07
2019-03-24T14:48:12.196Z,18.33
2019-03-24T14:50:39.256Z,14.07
2019-03-24T14:53:06.320Z,16.13
2019-03-24T14:55:33.368Z,16.23
2019-03-24T14:58:00.463Z,15.27
2019-03-24T15:00:27.541Z,15.10
2019-03-24T15:02:54.588Z,11.80
2019-03-24T15:05:21.869Z,10.03
2019-03-24T15:07:48.949Z,15.63
2019-03-24T15:10:16.001Z,14.10
2019-03-24T15:12:43.035Z,9.03
2019-03-24T15:15:10.270Z,9.83
2019-03-24T15:17:37.307Z,11.13
2019-03-24T15:20:04.384Z,10.47
2019-03-24T15:22:31.613Z,10.77
2019-03-24T15:24:58.674Z,9.40
2019-03-24T15:27:25.737Z,9.47
2019-03-24T15:29:52.810Z,10.17
2019-03-24T15:32:20.479Z,11.37
2019-03-24T15:34:47.580Z,10.30
2019-03-24T15:37:14.615Z,9.73
2019-03-24T15:39:41.921Z,22.23
2019-03-24T15:42:09.226Z,12.23
2019-03-24T15:44:36.508Z,14.80
2019-03-24T15:47:03.587Z,11.57
2019-03-24T15:49:30.662Z,10.10
2019-03-24T15:51:58.390Z,12.80
2019-03-24T15:54:25.446Z,10.77
2019-03-24T15:56:52.587Z,10.67
2019-03-24T15:59:19.785Z,11.40
2019-03-24T16:01:47.130Z,11.70
2019-03-24T16:04:14.401Z,12.97
2019-03-24T16:06:41.508Z,11.90
2019-03-24T16:09:08.613Z,14.83
2019-03-24T16:11:35.688Z,9.30
2019-03-24T16:14:02.899Z,10.80
2019-03-24T16:16:29.944Z,10.53
2019-03-24T16:18:57.008Z,10.73
2019-03-24T16:21:28.069Z,10.03
2019-03-24T16:23:52.832Z,12.47
2019-03-24T16:26:19.915Z,10.30
2019-03-24T16:28:46.975Z,18.33
2019-03-24T16:31:14.066Z,12.83
2019-03-24T16:33:41.107Z,12.40
2019-03-24T16:36:08.197Z,10.50
2019-03-24T16:38:35.272Z,14.73
2019-03-24T16:41:02.490Z,15.70
2019-03-24T16:43:34.508Z,13.00
2019-03-24T16:46:07.160Z,9.60
2019-03-24T16:48:40.088Z,15.87
2019-03-24T16:51:07.280Z,25.73
2019-03-24T16:53:34.863Z,11.47
2019-03-24T16:56:02.081Z,15.57
2019-03-24T16:58:29.158Z,13.20
2019-03-24T17:00:56.292Z,14.37
2019-03-24T17:03:23.381Z,10.80
2019-03-24T17:05:50.472Z,17.70
2019-03-24T17:08:17.604Z,13.63
2019-03-24T17:10:44.656Z,14.77
2019-03-24T17:13:11.924Z,9.30
2019-03-24T17:15:38.989Z,9.13
2019-03-24T17:18:06.022Z,12.77
2019-03-24T17:20:33.107Z,10.30
2019-03-24T17:23:00.321Z,9.90
2019-03-24T17:25:27.364Z,13.03
2019-03-24T17:27:54.450Z,10.80
2019-03-24T17:30:21.502Z,8.60
2019-03-24T17:32:48.715Z,12.33
2019-03-24T17:35:15.923Z,12.10
2019-03-24T17:37:43.051Z,11.20
2019-03-24T17:40:12.380Z,17.70
2019-03-24T17:42:38.876Z,12.20
2019-03-24T17:45:05.979Z,12.13
2019-03-24T17:47:33.040Z,11.27
2019-03-24T17:50:00.346Z,12.80
2019-03-24T17:52:39.535Z,15.23
2019-03-24T17:55:14.400Z,14.60
2019-03-24T17:57:47.644Z,14.63
2019-03-24T18:00:24.270Z,13.73
2019-03-24T18:02:57.234Z,11.20
2019-03-24T18:05:30.733Z,9.50
2019-03-24T18:08:07.728Z,16.10
2019-03-24T18:10:38.919Z,10.73
2019-03-24T18:13:06.353Z,19.30
2019-03-24T18:15:33.472Z,10.77
2019-03-24T18:18:00.824Z,12.17
2019-03-24T18:20:27.937Z,15.23
2019-03-24T18:22:55.026Z,11.30
2019-03-24T18:25:22.188Z,10.80
2019-03-24T18:27:49.481Z,16.40
2019-03-24T18:30:16.615Z,12.23
2019-03-24T18:32:43.845Z,12.93
2019-03-24T18:35:10.924Z,12.13
2019-03-24T18:37:37.969Z,14.20
2019-03-24T18:40:05.040Z,13.63
2019-03-24T18:42:32.088Z,11.60
2019-03-24T18:45:05.197Z,11.50
2019-03-24T18:47:33.161Z,8.33
2019-03-24T18:50:00.556Z,10.60
2019-03-24T18:52:27.870Z,11.43
2019-03-24T18:54:54.941Z,10.10
2019-03-24T18:57:22.019Z,9.77
2019-03-24T18:59:49.058Z,13.10
2019-03-24T19:02:28.720Z,12.37
2019-03-24T19:05:06.324Z,10.37
2019-03-24T19:07:41.448Z,11.17
2019-03-24T19:10:20.283Z,9.07
2019-03-24T19:12:51.866Z,15.23
2019-03-24T19:15:28.992Z,12.30
2019-03-24T19:17:55.219Z,12.67
2019-03-24T19:20:28.062Z,8.30
2019-03-24T19:23:01.688Z,9.50
2019-03-24T19:25:41.178Z,14.13
2019-03-24T19:28:07.370Z,16.03
2019-03-24T19:30:34.523Z,11.70
2019-03-24T19:33:01.595Z,12.33
2019-03-24T19:35:28.641Z,9.33
2019-03-24T19:37:55.910Z,14.93
2019-03-24T19:40:30.917Z,11.90
2019-03-24T19:43:01.417Z,9.83
2019-03-24T19:45:37.910Z,8.00
2019-03-24T19:48:09.901Z,9.33
2019-03-24T19:50:43.096Z,9.40
2019-03-24T19:53:18.076Z,10.13
2019-03-24T19:55:55.097Z,7.80
2019-03-24T19:58:31.326Z,11.00
2019-03-24T20:00:57.095Z,9.00
2019-03-24T20:03:24.139Z,10.50
2019-03-24T20:05:51.203Z,9.87
2019-03-24T20:08:18.253Z,13.60
2019-03-24T20:10:45.479Z,11.07
2019-03-24T20:13:12.572Z,11.27
2019-03-24T20:15:39.628Z,11.20
2019-03-24T20:18:06.879Z,10.20
2019-03-24T20:20:33.963Z,11.97
2019-03-24T20:23:01.016Z,10.30
2019-03-24T20:25:28.114Z,8.97
2019-03-24T20:27:55.222Z,9.97
2019-03-24T20:30:22.308Z,12.90
2019-03-24T20:32:49.357Z,11.20
2019-03-24T20:35:16.890Z,10.00
2019-03-24T20:37:44.040Z,10.73
2019-03-24T20:40:11.142Z,10.70
2019-03-24T20:42:38.191Z,11.03
2019-03-24T20:45:05.267Z,7.90
2019-03-24T20:47:32.880Z,14.10
2019-03-24T20:49:59.989Z,19.13
2019-03-24T20:52:27.028Z,15.00
2019-03-24T20:54:54.975Z,9.00
2019-03-24T20:57:22.062Z,9.47
2019-03-24T20:59:51.872Z,15.03
2019-03-24T21:02:17.932Z,12.73
2019-03-24T21:04:45.016Z,12.43
2019-03-24T21:07:12.076Z,15.80
2019-03-24T21:09:39.348Z,10.53
2019-03-24T21:12:06.400Z,9.87
2019-03-24T21:14:33.479Z,8.57
2019-03-24T21:17:00.548Z,10.33
2019-03-24T21:19:27.744Z,11.70
2019-03-24T21:21:54.798Z,10.47
2019-03-24T21:24:21.884Z,9.70
2019-03-24T21:26:49.009Z,14.17
2019-03-24T21:29:16.372Z,10.50
2019-03-24T21:31:43.482Z,9.97
2019-03-24T21:34:10.526Z,13.10
2019-03-24T21:36:37.588Z,10.73
2019-03-24T21:39:04.729Z,12.23
2019-03-24T21:41:31.789Z,11.43
2019-03-24T21:43:58.825Z,10.93
2019-03-24T21:46:25.907Z,9.83
2019-03-24T21:48:52.967Z,10.50
2019-03-24T21:51:20.185Z,9.80
2019-03-24T21:53:47.227Z,9.50
2019-03-24T21:56:14.413Z,9.47
2019-03-24T21:58:41.736Z,10.40
2019-03-24T22:01:08.834Z,10.80
2019-03-24T22:03:44.777Z,12.37
2019-03-24T22:06:21.219Z,10.87
2019-03-24T22:08:56.072Z,10.40
2019-03-24T22:11:30.540Z,14.03
2019-03-24T22:14:10.009Z,10.27
2019-03-24T22:16:44.066Z,11.17
2019-03-24T22:19:09.719Z,8.73
2019-03-24T22:21:36.788Z,10.53
2019-03-24T22:24:03.857Z,13.53
2019-03-24T22:26:30.898Z,12.90
2019-03-24T22:28:58.109Z,9.77
2019-03-24T22:31:25.154Z,11.97
2019-03-24T22:33:52.240Z,9.40
2019-03-24T22:36:19.283Z,11.80
2019-03-24T22:38:46.503Z,13.30
2019-03-24T22:41:13.559Z,9.00
2019-03-24T22:43:40.631Z,12.17
2019-03-24T22:46:07.677Z,11.13
2019-03-24T22:48:34.917Z,13.30
2019-03-24T22:51:01.971Z,9.47
2019-03-24T22:53:29.056Z,10.70
2019-03-24T22:55:56.104Z,11.83
2019-03-24T22:58:23.153Z,10.60
2019-03-24T23:00:50.346Z,10.70
2019-03-24T23:03:17.451Z,12.50
2019-03-24T23:05:51.901Z,13.17
2019-03-24T23:08:27.352Z,10.50
2019-03-24T23:11:03.137Z,10.93
2019-03-24T23:13:37.634Z,11.83
2019-03-24T23:16:14.722Z,9.93
2019-03-24T23:18:48.375Z,9.80
2019-03-24T23:21:25.080Z,8.57
2019-03-24T23:23:58.517Z,10.80
2019-03-24T23:26:31.907Z,11.17
2019-03-24T23:29:06.553Z,8.93
2019-03-24T23:31:42.680Z,11.80
2019-03-24T23:34:15.873Z,9.07
2019-03-24T23:36:47.605Z,10.10
2019-03-24T23:39:26.603Z,9.20
2019-03-24T23:42:04.919Z,9.93
2019-03-24T23:44:39.641Z,10.60
2019-03-24T23:47:18.086Z,8.57
2019-03-24T23:49:52.208Z,9.47
2019-03-24T23:52:30.962Z,7.57
2019-03-24T23:55:07.517Z,9.30
2019-03-24T23:57:46.530Z,8.70
